Antigo, WI

11:56 AM CST on February 09, 2016 (GMT -0600)
Langlade County | | Change Station
CLOSE
Current Station
Airport
Location: Antigo,
Elevation: 1522 ft
Nearby Weather Stations

Elev 1522 ft 45.16 °N, 89.11 °W | Updated 21 minutes ago

Overcast
Overcast
13 °F
Feels Like -4 °F
N
18
Wind Variable Wind from North
Gusts 23 mph

Today
High -- | Low -- °F
--% Chance of Precip.
Yesterday
High -- | Low -- °F
Precip. -- in
Pressure 29.79 in
Visibility 10.0 miles
Clouds Overcast 3000 ft
Windchill -4 °F
Dew Point 5 °F
Humidity 69%
Rainfall 0.00 in
Snow Depth Not available.
7:06 AM 5:14 PM
New Moon, 2% visible
METAR KAIG 091735Z AUTO 35016G20KT 10SM OVC030 M10/M15 A2979 RMK AO2 T11051152
Pressure 29.79 in
Visibility 10.0 miles
Clouds Overcast 3000 ft
Windchill -4 °F
Dew Point 5 °F
Humidity 69%
Rainfall 0.00 in
Snow Depth Not available.
7:06 AM 5:14 PM
New Moon, 2% visible
METAR KAIG 091735Z AUTO 35016G20KT 10SM OVC030 M10/M15 A2979 RMK AO2 T11051152

10-Day Weather Forecast

Almanac

Astronomy

Feb. 09, 2016 Rise Set
Actual Time
Civil Twilight
Nautical Twilight
Astronomical Twilight
Moon
Length of Visible Light
Length of Day
Tomorrow will be .
, % of the Moon is Illuminated

Today's Extremes

State Highs State Lows

Community

WunderPhotos

Upload Photos

1,891,650 photos uploaded!

WunderBlog® & News

Nearby

Air Quality

  Air Quality AQ Index Pollutant
Not available.

Snow Depth

Station Depth Elevation

Earthquake Activity

City Distance Mag. Time & Date
Minimum magnitude displayed is 2.5.

Coastal Water Temperatures

Place Temperature

Stations

Nearby Weather Stations

Station Location Temp. Windchill Dew Point Humidity Wind Precip. Elev Updated Type
                   

Watches & Warnings

There are currently no watches in effect.